createdAt,value
2022-09-21T00:00:25.942Z,23.35
2022-09-21T00:02:55.280Z,23.73
2022-09-21T00:05:21.815Z,26.55
2022-09-21T00:07:48.150Z,23.65
2022-09-21T00:10:14.863Z,24.55
2022-09-21T00:12:41.245Z,24.52
2022-09-21T00:15:09.484Z,23.30
2022-09-21T00:17:36.997Z,25.83
2022-09-21T00:20:05.928Z,25.70
2022-09-21T00:22:33.385Z,24.85
2022-09-21T00:25:01.346Z,22.63
2022-09-21T00:27:29.990Z,24.33
2022-09-21T00:29:57.598Z,24.10
2022-09-21T00:32:27.655Z,22.02
2022-09-21T00:34:54.006Z,19.75
2022-09-21T00:37:20.362Z,20.50
2022-09-21T00:39:46.816Z,17.77
2022-09-21T00:42:25.921Z,18.17
2022-09-21T00:44:52.682Z,17.98
2022-09-21T00:47:24.935Z,17.48
2022-09-21T00:49:55.583Z,15.82
2022-09-21T00:52:30.232Z,17.48
2022-09-21T00:55:00.531Z,17.52
2022-09-21T00:57:30.971Z,19.77
2022-09-21T01:00:01.273Z,21.55
2022-09-21T01:02:28.397Z,21.88
2022-09-21T01:04:55.594Z,24.35
2022-09-21T01:07:27.496Z,22.33
2022-09-21T01:10:02.343Z,23.55
2022-09-21T01:12:53.668Z,25.63
2022-09-21T01:15:40.508Z,23.73
2022-09-21T01:18:18.096Z,25.10
2022-09-21T01:21:15.698Z,27.90
2022-09-21T01:24:27.225Z,22.58
2022-09-21T01:27:11.648Z,21.92
2022-09-21T01:29:55.985Z,24.52
2022-09-21T01:32:28.034Z,26.27
2022-09-21T01:35:02.842Z,25.38
2022-09-21T01:37:43.730Z,22.30
2022-09-21T01:40:16.699Z,22.50
2022-09-21T01:42:47.054Z,21.05
2022-09-21T01:45:17.619Z,19.33
2022-09-21T01:47:48.264Z,18.42
2022-09-21T01:50:17.403Z,18.08
2022-09-21T01:52:52.192Z,18.48
2022-09-21T01:55:29.642Z,19.60
2022-09-21T01:58:11.858Z,21.40
2022-09-21T02:00:40.301Z,18.85
2022-09-21T02:03:15.217Z,21.35
2022-09-21T02:05:42.503Z,20.80
2022-09-21T02:08:10.420Z,20.08
2022-09-21T02:10:42.757Z,21.52
2022-09-21T02:13:09.539Z,22.23
2022-09-21T02:16:16.597Z,20.70
2022-09-21T02:19:07.545Z,25.20
2022-09-21T02:21:41.621Z,24.65
2022-09-21T02:24:21.871Z,25.65
2022-09-21T02:26:56.600Z,24.27
2022-09-21T02:29:33.365Z,26.40
2022-09-21T02:32:10.910Z,26.08
2022-09-21T02:34:46.191Z,23.85
2022-09-21T02:37:25.243Z,24.45
2022-09-21T02:39:58.070Z,25.58
2022-09-21T02:42:29.611Z,24.58
2022-09-21T02:45:05.683Z,24.70
2022-09-21T02:47:44.700Z,23.70
2022-09-21T02:50:17.377Z,23.85
2022-09-21T02:52:44.471Z,25.50
2022-09-21T02:55:13.151Z,23.58
2022-09-21T02:57:40.758Z,23.67
2022-09-21T03:00:08.235Z,23.27
2022-09-21T03:02:40.083Z,23.40
2022-09-21T03:05:08.014Z,24.45
2022-09-21T03:07:34.510Z,25.88
2022-09-21T03:10:01.244Z,26.02
2022-09-21T03:12:27.878Z,25.63
2022-09-21T03:14:54.194Z,25.73
2022-09-21T03:17:20.931Z,25.77
2022-09-21T03:19:47.273Z,23.38
2022-09-21T03:22:13.590Z,25.27
2022-09-21T03:24:45.882Z,26.33
2022-09-21T03:27:18.205Z,22.35
2022-09-21T03:29:45.190Z,21.33
2022-09-21T03:32:11.706Z,24.58
2022-09-21T03:34:38.108Z,23.20
2022-09-21T03:37:06.760Z,24.15
2022-09-21T03:39:33.094Z,21.20
2022-09-21T03:41:59.425Z,22.17
2022-09-21T03:44:26.675Z,20.88
2022-09-21T03:46:53.810Z,21.92
2022-09-21T03:49:20.295Z,21.60
2022-09-21T03:51:46.802Z,23.42
2022-09-21T03:54:13.161Z,24.45
2022-09-21T03:56:39.498Z,21.15
2022-09-21T03:59:09.482Z,20.88
2022-09-21T04:01:38.480Z,22.35
2022-09-21T04:04:04.973Z,23.52
2022-09-21T04:06:31.293Z,22.02
2022-09-21T04:08:57.629Z,23.25
2022-09-21T04:11:24.549Z,21.67
2022-09-21T04:13:53.154Z,24.10
2022-09-21T04:16:19.519Z,25.13
2022-09-21T04:18:47.758Z,22.38
2022-09-21T04:21:14.075Z,20.15
2022-09-21T04:23:41.572Z,19.67
2022-09-21T04:26:27.667Z,17.85
2022-09-21T04:28:55.192Z,18.45
2022-09-21T04:31:23.208Z,18.17
2022-09-21T04:33:51.019Z,17.70
2022-09-21T04:36:18.785Z,18.98
2022-09-21T04:38:45.708Z,19.60
2022-09-21T04:41:12.833Z,20.27
2022-09-21T04:43:42.334Z,19.52
2022-09-21T04:46:11.465Z,20.05
2022-09-21T04:48:39.102Z,21.02
2022-09-21T04:51:07.700Z,21.40
2022-09-21T04:53:35.691Z,20.30
2022-09-21T04:56:02.671Z,21.17
2022-09-21T04:58:29.046Z,22.77
2022-09-21T05:00:56.504Z,21.48
2022-09-21T05:03:24.534Z,21.60
2022-09-21T05:05:53.085Z,20.23
2022-09-21T05:08:40.891Z,20.00
2022-09-21T05:11:09.786Z,22.45
2022-09-21T05:13:36.432Z,21.52
2022-09-21T05:16:02.924Z,20.08
2022-09-21T05:18:29.394Z,20.23
2022-09-21T05:21:00.643Z,20.40
2022-09-21T05:23:29.471Z,23.02
2022-09-21T05:25:56.941Z,22.45
2022-09-21T05:28:24.336Z,23.85
2022-09-21T05:31:17.824Z,23.77
2022-09-21T05:33:51.591Z,24.10
2022-09-21T05:36:30.006Z,23.43
2022-09-21T05:38:56.666Z,22.15
2022-09-21T05:41:23.617Z,24.45
2022-09-21T05:43:50.430Z,22.58
2022-09-21T05:46:26.583Z,24.48
2022-09-21T05:49:17.418Z,25.38
2022-09-21T05:52:13.585Z,26.90
2022-09-21T05:55:27.590Z,27.05
2022-09-21T05:58:15.465Z,30.85
2022-09-21T06:01:02.028Z,33.20
2022-09-21T06:03:33.643Z,30.52
2022-09-21T06:05:59.977Z,34.95
2022-09-21T06:08:26.725Z,36.63
2022-09-21T06:10:54.710Z,36.97
2022-09-21T06:13:21.415Z,36.92
2022-09-21T06:15:47.762Z,35.90
2022-09-21T06:18:17.764Z,35.58
2022-09-21T06:20:44.415Z,34.58
2022-09-21T06:23:13.080Z,37.03
2022-09-21T06:25:39.844Z,38.03
2022-09-21T06:28:12.586Z,41.78
2022-09-21T06:30:42.025Z,41.78
2022-09-21T06:33:08.870Z,45.47
2022-09-21T06:35:36.833Z,43.40
2022-09-21T06:38:06.273Z,45.75
2022-09-21T06:40:35.031Z,44.30
2022-09-21T06:43:05.875Z,49.78
2022-09-21T06:45:32.497Z,50.33
2022-09-21T06:47:59.091Z,55.70
2022-09-21T06:50:25.679Z,58.45
2022-09-21T06:52:52.018Z,56.15
2022-09-21T06:55:18.357Z,45.53
2022-09-21T06:57:44.866Z,57.47
2022-09-21T07:00:12.899Z,67.70
2022-09-21T07:02:43.441Z,63.72
2022-09-21T07:05:09.798Z,59.90
2022-09-21T07:07:36.403Z,62.53
2022-09-21T07:10:05.859Z,65.32
2022-09-21T07:12:34.574Z,54.25
2022-09-21T07:15:02.248Z,62.08
2022-09-21T07:17:33.152Z,68.25
2022-09-21T07:20:00.196Z,46.10
2022-09-21T07:22:28.822Z,59.35
2022-09-21T07:24:55.251Z,68.53
2022-09-21T07:27:21.819Z,61.03
2022-09-21T07:29:48.114Z,59.20
2022-09-21T07:32:14.548Z,59.13
2022-09-21T07:34:40.889Z,65.80
2022-09-21T07:37:07.180Z,69.18
2022-09-21T07:39:33.504Z,74.88
2022-09-21T07:41:59.819Z,79.78
2022-09-21T07:44:26.552Z,73.80
2022-09-21T07:46:52.978Z,72.75
2022-09-21T07:49:19.409Z,80.50
2022-09-21T07:51:45.949Z,72.47
2022-09-21T07:54:12.694Z,73.80
2022-09-21T07:56:39.537Z,78.25
2022-09-21T07:59:05.914Z,82.05
2022-09-21T08:01:34.781Z,75.25
2022-09-21T08:04:01.809Z,71.47
2022-09-21T08:06:30.877Z,75.63
2022-09-21T08:08:58.288Z,76.55
2022-09-21T08:11:26.225Z,59.70
2022-09-21T08:13:54.068Z,45.63
2022-09-21T08:16:20.905Z,55.45
2022-09-21T08:18:47.355Z,61.28
2022-09-21T08:21:13.854Z,48.60
2022-09-21T08:23:40.453Z,38.45
2022-09-21T08:26:07.617Z,36.55
2022-09-21T08:28:36.139Z,32.17
2022-09-21T08:31:08.552Z,35.75
2022-09-21T08:33:35.501Z,31.05
2022-09-21T08:36:03.164Z,32.58
2022-09-21T08:38:34.717Z,37.83
2022-09-21T08:41:03.003Z,42.83
2022-09-21T08:43:36.669Z,40.10
2022-09-21T08:46:28.201Z,37.50
2022-09-21T08:49:07.023Z,33.45
2022-09-21T08:51:36.888Z,29.40
2022-09-21T08:54:20.288Z,27.67
2022-09-21T08:57:04.420Z,41.63
2022-09-21T08:59:31.623Z,49.95
2022-09-21T09:02:06.104Z,25.73
2022-09-21T09:04:55.519Z,31.08
2022-09-21T09:07:59.486Z,25.67
2022-09-21T09:10:39.107Z,26.35
2022-09-21T09:13:20.854Z,26.38
2022-09-21T09:15:59.511Z,27.05
2022-09-21T09:18:34.181Z,26.42
2022-09-21T09:21:29.616Z,29.23
2022-09-21T09:24:04.022Z,29.65
2022-09-21T09:26:39.793Z,31.88
2022-09-21T09:29:18.953Z,30.70
2022-09-21T09:31:46.533Z,31.52
2022-09-21T09:34:18.233Z,34.80
2022-09-21T09:36:59.143Z,36.83
2022-09-21T09:39:29.482Z,28.40
2022-09-21T09:42:08.349Z,29.50
2022-09-21T09:45:12.499Z,28.48
2022-09-21T09:47:58.001Z,27.00
2022-09-21T09:50:30.130Z,26.10
2022-09-21T09:53:05.026Z,23.13
2022-09-21T09:55:43.622Z,22.77
2022-09-21T09:58:33.184Z,17.48
2022-09-21T10:00:59.582Z,17.23
2022-09-21T10:03:27.731Z,15.57
2022-09-21T10:05:54.699Z,16.50
2022-09-21T10:08:36.264Z,14.75
2022-09-21T10:11:03.958Z,12.55
2022-09-21T10:13:33.297Z,15.15
2022-09-21T10:15:59.671Z,11.77
2022-09-21T10:18:38.902Z,8.00
2022-09-21T10:21:08.821Z,8.40
2022-09-21T10:23:37.162Z,12.35
2022-09-21T10:26:12.479Z,8.77
2022-09-21T10:28:55.763Z,11.65
2022-09-21T10:31:24.120Z,10.85
2022-09-21T10:34:03.724Z,11.50
2022-09-21T10:36:35.560Z,10.65
2022-09-21T10:39:22.349Z,9.90
2022-09-21T10:42:12.842Z,9.55
2022-09-21T10:44:42.144Z,9.13
2022-09-21T10:47:28.268Z,10.73
2022-09-21T10:49:57.738Z,10.68
2022-09-21T10:52:31.931Z,10.95
2022-09-21T10:54:58.626Z,13.57
2022-09-21T10:57:28.171Z,10.77
2022-09-21T10:59:54.879Z,11.88
2022-09-21T11:02:31.165Z,10.88
2022-09-21T11:05:00.518Z,10.35
2022-09-21T11:07:49.609Z,12.23
2022-09-21T11:10:21.650Z,9.77
2022-09-21T11:13:06.811Z,9.02
2022-09-21T11:15:56.723Z,8.85
2022-09-21T11:18:44.833Z,9.35
2022-09-21T11:21:31.990Z,9.07
2022-09-21T11:24:12.701Z,9.52
2022-09-21T11:26:56.034Z,8.88
2022-09-21T11:29:30.919Z,9.77
2022-09-21T11:32:22.151Z,10.07
2022-09-21T11:35:20.654Z,9.45
2022-09-21T11:38:11.783Z,8.35
2022-09-21T11:40:42.680Z,7.70
2022-09-21T11:43:26.901Z,15.02
2022-09-21T11:46:30.259Z,229.25
2022-09-21T11:49:12.485Z,13.38
2022-09-21T11:51:55.933Z,14.73
2022-09-21T11:54:46.868Z,13.85
2022-09-21T11:57:28.669Z,6.45
2022-09-21T12:00:16.311Z,11.65
2022-09-21T12:03:09.218Z,11.00
2022-09-21T12:06:03.595Z,7.80
2022-09-21T12:08:42.248Z,7.35
2022-09-21T12:11:31.856Z,31.15
2022-09-21T12:14:11.480Z,9.90
2022-09-21T12:16:56.883Z,10.73
2022-09-21T12:19:33.768Z,8.57
2022-09-21T12:22:14.220Z,8.18
2022-09-21T12:24:50.792Z,7.47
2022-09-21T12:28:02.950Z,7.75
2022-09-21T12:30:32.349Z,22.25
2022-09-21T12:33:01.560Z,13.95
2022-09-21T12:35:39.392Z,9.43
2022-09-21T12:38:29.019Z,9.13
2022-09-21T12:41:06.825Z,7.95
2022-09-21T12:43:53.449Z,8.38
2022-09-21T12:46:22.190Z,8.65
2022-09-21T12:48:49.091Z,7.55
2022-09-21T12:51:32.687Z,6.80
2022-09-21T12:54:06.316Z,9.55
2022-09-21T12:56:49.842Z,6.90
2022-09-21T12:59:43.858Z,6.05
2022-09-21T13:02:19.250Z,6.38
2022-09-21T13:05:07.163Z,5.82
2022-09-21T13:07:55.266Z,6.30
2022-09-21T13:10:28.046Z,8.10
2022-09-21T13:12:59.960Z,6.13
2022-09-21T13:15:30.245Z,6.60
2022-09-21T13:18:01.662Z,6.55
2022-09-21T13:20:34.559Z,5.88
2022-09-21T13:23:02.339Z,7.30
2022-09-21T13:25:32.494Z,6.05
2022-09-21T13:28:14.919Z,9.80
2022-09-21T13:31:37.051Z,6.47
2022-09-21T13:34:20.997Z,6.50
2022-09-21T13:37:16.763Z,6.20
2022-09-21T13:39:44.369Z,6.60
2022-09-21T13:42:29.380Z,7.20
2022-09-21T13:45:00.547Z,7.32
2022-09-21T13:47:33.151Z,7.30
2022-09-21T13:50:12.559Z,6.40
2022-09-21T13:52:45.741Z,7.18
2022-09-21T13:55:27.783Z,7.45
2022-09-21T13:57:55.954Z,10.70
2022-09-21T14:00:22.330Z,7.28
2022-09-21T14:02:48.982Z,6.78
2022-09-21T14:05:40.609Z,6.25
2022-09-21T14:08:15.939Z,6.57
2022-09-21T14:10:56.704Z,6.47
2022-09-21T14:13:31.969Z,7.38
2022-09-21T14:16:29.070Z,6.38
2022-09-21T14:18:56.251Z,5.07
2022-09-21T14:21:22.894Z,8.40
2022-09-21T14:24:08.048Z,5.70
2022-09-21T14:26:46.110Z,7.45
2022-09-21T14:29:21.684Z,7.80
2022-09-21T14:31:52.132Z,5.55
2022-09-21T14:34:25.189Z,6.30
2022-09-21T14:36:55.930Z,5.95
2022-09-21T14:39:25.313Z,7.10
2022-09-21T14:41:54.755Z,7.57
2022-09-21T14:44:25.588Z,5.60
2022-09-21T14:47:22.535Z,6.63
2022-09-21T14:50:14.991Z,5.75
2022-09-21T14:52:56.018Z,5.22
2022-09-21T14:55:40.604Z,6.95
2022-09-21T14:58:33.948Z,8.02
2022-09-21T15:01:35.722Z,6.68
2022-09-21T15:04:31.258Z,7.00
2022-09-21T15:07:34.940Z,7.15
2022-09-21T15:10:32.074Z,7.30
2022-09-21T15:13:08.258Z,6.63
2022-09-21T15:15:42.399Z,9.10
2022-09-21T15:18:21.311Z,6.28
2022-09-21T15:21:01.724Z,8.27
2022-09-21T15:23:40.856Z,4.65
2022-09-21T15:26:19.135Z,5.25
2022-09-21T15:29:08.769Z,6.13
2022-09-21T15:31:38.676Z,4.25
2022-09-21T15:34:06.625Z,4.40
2022-09-21T15:36:37.609Z,4.00
2022-09-21T15:39:04.599Z,4.30
2022-09-21T15:41:45.413Z,4.30
2022-09-21T15:44:16.510Z,4.32
2022-09-21T15:46:47.276Z,8.05
2022-09-21T15:49:21.236Z,5.35
2022-09-21T15:51:56.471Z,5.22
2022-09-21T15:54:40.021Z,4.53
2022-09-21T15:57:25.221Z,4.20
2022-09-21T15:59:53.366Z,6.28
2022-09-21T16:02:25.135Z,4.43
2022-09-21T16:04:52.552Z,4.13
2022-09-21T16:07:30.579Z,5.43
2022-09-21T16:09:57.143Z,4.32
2022-09-21T16:12:26.372Z,6.45
2022-09-21T16:14:53.857Z,4.40
2022-09-21T16:17:26.302Z,4.50
2022-09-21T16:19:56.144Z,4.50
2022-09-21T16:22:39.153Z,4.47
2022-09-21T16:25:23.005Z,13.80
2022-09-21T16:27:54.225Z,4.47
2022-09-21T16:30:41.442Z,4.88
2022-09-21T16:33:34.540Z,4.68
2022-09-21T16:36:02.566Z,4.90
2022-09-21T16:38:28.856Z,5.07
2022-09-21T16:40:56.624Z,7.35
2022-09-21T16:43:24.177Z,5.30
2022-09-21T16:45:50.490Z,5.50
2022-09-21T16:48:16.785Z,7.35
2022-09-21T16:50:43.106Z,5.63
2022-09-21T16:53:09.462Z,6.60
2022-09-21T16:55:35.782Z,5.25
2022-09-21T16:58:02.074Z,6.18
2022-09-21T17:00:40.018Z,9.13
2022-09-21T17:03:06.447Z,6.88
2022-09-21T17:05:32.772Z,7.65
2022-09-21T17:07:59.639Z,6.65
2022-09-21T17:10:34.501Z,6.07
2022-09-21T17:13:00.804Z,8.93
2022-09-21T17:15:28.414Z,11.07
2022-09-21T17:17:54.733Z,10.68
2022-09-21T17:20:35.602Z,11.30
2022-09-21T17:23:03.131Z,10.45
2022-09-21T17:25:33.184Z,12.40
2022-09-21T17:28:00.985Z,14.45
2022-09-21T17:30:28.134Z,12.38
2022-09-21T17:32:55.364Z,13.80
2022-09-21T17:35:32.743Z,11.07
2022-09-21T17:37:59.853Z,10.38
2022-09-21T17:40:27.184Z,13.20
2022-09-21T17:43:05.007Z,12.85
2022-09-21T17:45:46.738Z,12.07
2022-09-21T17:48:18.912Z,13.77
2022-09-21T17:50:45.475Z,10.55
2022-09-21T17:53:30.817Z,11.95
2022-09-21T17:55:59.210Z,12.15
2022-09-21T17:58:43.167Z,11.07
2022-09-21T18:01:29.875Z,11.70
2022-09-21T18:03:57.469Z,9.75
2022-09-21T18:06:24.336Z,10.10
2022-09-21T18:08:50.910Z,8.68
2022-09-21T18:11:39.121Z,9.45
2022-09-21T18:14:14.957Z,11.32
2022-09-21T18:17:16.573Z,10.13
2022-09-21T18:19:51.584Z,14.95
2022-09-21T18:22:31.442Z,20.13
2022-09-21T18:24:58.213Z,23.75
2022-09-21T18:27:24.841Z,26.98
2022-09-21T18:29:51.543Z,45.35
2022-09-21T18:32:53.338Z,34.00
2022-09-21T18:35:45.320Z,36.13
2022-09-21T18:38:27.048Z,26.23
2022-09-21T18:41:20.249Z,24.83
2022-09-21T18:44:14.535Z,17.77
2022-09-21T18:47:03.507Z,14.50
2022-09-21T18:49:47.754Z,12.23
2022-09-21T18:52:35.770Z,9.68
2022-09-21T18:55:11.406Z,7.20
2022-09-21T18:57:37.994Z,6.88
2022-09-21T19:00:05.418Z,7.22
2022-09-21T19:02:32.003Z,8.55
2022-09-21T19:04:59.052Z,9.32
2022-09-21T19:07:39.603Z,9.55
2022-09-21T19:10:28.061Z,9.18
2022-09-21T19:12:54.759Z,8.32
2022-09-21T19:15:59.847Z,7.72
2022-09-21T19:18:48.983Z,8.25
2022-09-21T19:21:31.464Z,8.35
2022-09-21T19:24:25.518Z,9.38
2022-09-21T19:26:55.820Z,7.95
2022-09-21T19:29:28.223Z,7.90
2022-09-21T19:31:54.960Z,7.57
2022-09-21T19:34:21.398Z,7.05
2022-09-21T19:36:47.792Z,7.93
2022-09-21T19:39:15.008Z,9.90
2022-09-21T19:41:50.774Z,9.93
2022-09-21T19:44:29.645Z,7.32
2022-09-21T19:46:59.246Z,6.82
2022-09-21T19:49:35.847Z,7.97
2022-09-21T19:52:04.518Z,13.57
2022-09-21T19:54:49.664Z,8.38
2022-09-21T19:57:36.342Z,8.70
2022-09-21T20:00:08.575Z,9.38
2022-09-21T20:02:41.499Z,9.63
2022-09-21T20:05:23.119Z,9.52
2022-09-21T20:07:58.106Z,8.85
2022-09-21T20:10:45.981Z,9.43
2022-09-21T20:14:00.113Z,9.18
2022-09-21T20:16:32.426Z,9.10
2022-09-21T20:19:14.413Z,9.20
2022-09-21T20:21:43.575Z,9.80
2022-09-21T20:24:19.732Z,8.68
2022-09-21T20:26:49.998Z,8.48
2022-09-21T20:29:17.165Z,9.25
2022-09-21T20:31:44.063Z,9.23
2022-09-21T20:34:12.095Z,8.52
2022-09-21T20:36:38.402Z,9.50
2022-09-21T20:39:04.883Z,9.57
2022-09-21T20:41:31.308Z,10.13
2022-09-21T20:43:59.141Z,11.95
2022-09-21T20:46:26.001Z,11.10
2022-09-21T20:49:05.197Z,9.70
2022-09-21T20:51:33.934Z,8.98
2022-09-21T20:54:04.638Z,7.93
2022-09-21T20:56:31.313Z,10.27
2022-09-21T20:58:57.769Z,9.75
2022-09-21T21:01:24.765Z,8.82
2022-09-21T21:03:51.366Z,10.70
2022-09-21T21:06:18.625Z,12.38
2022-09-21T21:08:45.377Z,10.10
2022-09-21T21:11:11.968Z,11.98
2022-09-21T21:13:38.290Z,14.52
2022-09-21T21:16:08.241Z,11.45
2022-09-21T21:18:41.605Z,14.43
2022-09-21T21:21:08.068Z,11.45
2022-09-21T21:23:54.364Z,14.00
2022-09-21T21:26:20.866Z,10.95
2022-09-21T21:28:47.413Z,12.30
2022-09-21T21:31:19.411Z,13.45
2022-09-21T21:33:47.778Z,13.32
2022-09-21T21:36:14.934Z,11.98
2022-09-21T21:38:43.058Z,11.85
2022-09-21T21:41:12.598Z,11.85
2022-09-21T21:43:40.216Z,11.48
2022-09-21T21:46:10.654Z,10.93
2022-09-21T21:48:38.596Z,13.35
2022-09-21T21:51:06.667Z,15.60
2022-09-21T21:53:35.873Z,16.52
2022-09-21T21:56:05.373Z,14.82
2022-09-21T21:58:33.065Z,14.57
2022-09-21T22:01:14.929Z,15.85
2022-09-21T22:03:42.037Z,13.75
2022-09-21T22:06:10.005Z,16.42
2022-09-21T22:08:38.156Z,14.77
2022-09-21T22:11:05.766Z,14.48
2022-09-21T22:13:38.254Z,13.40
2022-09-21T22:16:16.162Z,13.18
2022-09-21T22:18:43.929Z,14.23
2022-09-21T22:21:16.697Z,13.73
2022-09-21T22:23:43.863Z,13.77
2022-09-21T22:26:15.709Z,14.15
2022-09-21T22:28:53.349Z,12.90
2022-09-21T22:31:23.099Z,13.65
2022-09-21T22:33:49.476Z,13.77
2022-09-21T22:36:21.567Z,13.95
2022-09-21T22:38:49.331Z,14.27
2022-09-21T22:41:18.165Z,13.80
2022-09-21T22:43:48.549Z,13.35
2022-09-21T22:46:17.492Z,12.93
2022-09-21T22:48:44.620Z,14.27
2022-09-21T22:51:12.254Z,13.63
2022-09-21T22:53:38.896Z,14.07
2022-09-21T22:56:06.908Z,15.23
2022-09-21T22:58:35.019Z,15.20
2022-09-21T23:01:15.647Z,13.35
2022-09-21T23:03:42.601Z,14.30
2022-09-21T23:06:11.500Z,16.02
2022-09-21T23:08:38.883Z,15.73
2022-09-21T23:11:22.176Z,14.75
2022-09-21T23:13:49.294Z,15.23
2022-09-21T23:16:16.656Z,15.73
2022-09-21T23:18:43.888Z,15.18
2022-09-21T23:21:13.243Z,14.57
2022-09-21T23:23:40.174Z,16.02
2022-09-21T23:26:16.717Z,16.52
2022-09-21T23:28:45.623Z,15.82
2022-09-21T23:31:14.695Z,15.32
2022-09-21T23:33:46.982Z,15.65
2022-09-21T23:36:16.344Z,16.23
2022-09-21T23:38:43.193Z,16.33
2022-09-21T23:41:13.800Z,16.10
2022-09-21T23:43:41.893Z,16.27
2022-09-21T23:46:10.902Z,15.88
2022-09-21T23:48:38.205Z,15.40
2022-09-21T23:51:05.204Z,16.35
2022-09-21T23:53:31.834Z,14.90
2022-09-21T23:55:58.677Z,15.52
2022-09-21T23:58:26.015Z,15.48
